sensor_id;sensor_type;location;lat;lon;timestamp;pressure;altitude;pressure_sealevel;temperature;humidity
64675;BME280;51090;51.512;11.332;2023-04-22T00:02:15;99040.28;;;12.02;91.20
64675;BME280;51090;51.512;11.332;2023-04-22T00:04:42;99036.19;;;11.99;91.55
64675;BME280;51090;51.512;11.332;2023-04-22T00:07:08;99037.00;;;11.99;91.32
64675;BME280;51090;51.512;11.332;2023-04-22T00:09:34;99035.41;;;11.98;91.40
64675;BME280;51090;51.512;11.332;2023-04-22T00:12:01;99030.88;;;11.99;91.10
64675;BME280;51090;51.512;11.332;2023-04-22T00:14:27;99020.69;;;11.96;91.45
64675;BME280;51090;51.512;11.332;2023-04-22T00:16:54;99014.97;;;11.92;91.68
64675;BME280;51090;51.512;11.332;2023-04-22T00:19:20;99015.78;;;11.93;91.59
64675;BME280;51090;51.512;11.332;2023-04-22T00:21:46;99014.13;;;11.92;91.74
64675;BME280;51090;51.512;11.332;2023-04-22T00:24:12;99006.38;;;11.90;91.49
64675;BME280;51090;51.512;11.332;2023-04-22T00:26:38;99008.22;;;11.90;91.35
64675;BME280;51090;51.512;11.332;2023-04-22T00:29:04;99003.28;;;11.87;92.31
64675;BME280;51090;51.512;11.332;2023-04-22T00:31:30;98998.81;;;11.87;93.24
64675;BME280;51090;51.512;11.332;2023-04-22T00:33:56;99000.63;;;11.87;91.77
64675;BME280;51090;51.512;11.332;2023-04-22T00:36:22;98998.97;;;11.86;91.61
64675;BME280;51090;51.512;11.332;2023-04-22T00:38:49;99004.69;;;11.83;92.33
64675;BME280;51090;51.512;11.332;2023-04-22T00:41:18;99005.91;;;11.80;91.63
64675;BME280;51090;51.512;11.332;2023-04-22T00:43:45;99007.16;;;11.77;91.78
64675;BME280;51090;51.512;11.332;2023-04-22T00:46:11;99003.06;;;11.75;91.94
64675;BME280;51090;51.512;11.332;2023-04-22T00:48:37;99005.91;;;11.73;91.69
64675;BME280;51090;51.512;11.332;2023-04-22T00:51:04;99005.13;;;11.80;90.88
64675;BME280;51090;51.512;11.332;2023-04-22T00:53:30;99004.91;;;11.74;90.72
64675;BME280;51090;51.512;11.332;2023-04-22T00:55:57;99002.84;;;11.70;90.57
64675;BME280;51090;51.512;11.332;2023-04-22T00:58:26;98991.81;;;11.66;90.78
64675;BME280;51090;51.512;11.332;2023-04-22T01:00:52;98995.28;;;11.60;90.49
64675;BME280;51090;51.512;11.332;2023-04-22T01:03:19;98987.72;;;11.57;90.76
64675;BME280;51090;51.512;11.332;2023-04-22T01:05:47;98994.88;;;11.57;90.57
64675;BME280;51090;51.512;11.332;2023-04-22T01:08:13;98989.34;;;11.58;91.00
64675;BME280;51090;51.512;11.332;2023-04-22T01:10:41;98986.88;;;11.50;92.39
64675;BME280;51090;51.512;11.332;2023-04-22T01:13:07;98986.47;;;11.46;91.46
64675;BME280;51090;51.512;11.332;2023-04-22T01:15:34;98990.34;;;11.44;91.62
64675;BME280;51090;51.512;11.332;2023-04-22T01:18:00;98991.75;;;11.40;91.90
64675;BME280;51090;51.512;11.332;2023-04-22T01:20:29;98996.66;;;11.36;92.17
64675;BME280;51090;51.512;11.332;2023-04-22T01:22:56;98999.09;;;11.31;92.37
64675;BME280;51090;51.512;11.332;2023-04-22T01:25:24;98997.03;;;11.26;93.28
64675;BME280;51090;51.512;11.332;2023-04-22T01:27:50;99004.78;;;11.21;93.02
64675;BME280;51090;51.512;11.332;2023-04-22T01:30:17;99005.19;;;11.18;93.30
64675;BME280;51090;51.512;11.332;2023-04-22T01:32:44;99010.28;;;11.13;93.67
64675;BME280;51090;51.512;11.332;2023-04-22T01:35:10;99004.94;;;11.06;92.62
64675;BME280;51090;51.512;11.332;2023-04-22T01:37:36;98999.38;;;10.95;93.46
64675;BME280;51090;51.512;11.332;2023-04-22T01:40:03;99015.91;;;10.97;93.54
64675;BME280;51090;51.512;11.332;2023-04-22T01:42:29;99012.66;;;10.95;93.82
64675;BME280;51090;51.512;11.332;2023-04-22T01:44:55;99001.97;;;10.81;94.06
64675;BME280;51090;51.512;11.332;2023-04-22T01:47:21;99005.00;;;10.78;92.98
64675;BME280;51090;51.512;11.332;2023-04-22T01:49:47;99000.91;;;10.69;93.87
64675;BME280;51090;51.512;11.332;2023-04-22T01:52:13;99003.91;;;10.66;94.68
64675;BME280;51090;51.512;11.332;2023-04-22T01:54:38;99007.19;;;10.61;93.48
64675;BME280;51090;51.512;11.332;2023-04-22T01:57:10;98992.63;;;10.51;95.46
64675;BME280;51090;51.512;11.332;2023-04-22T01:59:38;99007.31;;;10.53;94.62
64675;BME280;51090;51.512;11.332;2023-04-22T02:02:04;98990.34;;;10.41;94.16
64675;BME280;51090;51.512;11.332;2023-04-22T02:04:31;99007.72;;;10.50;94.63
64675;BME280;51090;51.512;11.332;2023-04-22T02:06:56;99010.34;;;10.50;94.81
64675;BME280;51090;51.512;11.332;2023-04-22T02:09:22;99019.34;;;10.49;95.21
64675;BME280;51090;51.512;11.332;2023-04-22T02:11:48;99029.53;;;10.45;94.94
64675;BME280;51090;51.512;11.332;2023-04-22T02:14:14;99020.69;;;10.38;95.46
64675;BME280;51090;51.512;11.332;2023-04-22T02:16:41;99025.38;;;10.36;94.78
64675;BME280;51090;51.512;11.332;2023-04-22T02:19:07;99020.47;;;10.33;94.83
64675;BME280;51090;51.512;11.332;2023-04-22T02:21:33;99019.19;;;10.29;94.82
64675;BME280;51090;51.512;11.332;2023-04-22T02:23:59;99020.59;;;10.25;94.33
64675;BME280;51090;51.512;11.332;2023-04-22T02:26:25;98988.78;;;9.97;94.96
64675;BME280;51090;51.512;11.332;2023-04-22T02:28:53;99007.59;;;10.09;96.72
64675;BME280;51090;51.512;11.332;2023-04-22T02:31:19;99015.53;;;10.09;95.64
64675;BME280;51090;51.512;11.332;2023-04-22T02:33:45;99006.72;;;10.01;95.79
64675;BME280;51090;51.512;11.332;2023-04-22T02:36:10;99009.38;;;10.01;95.38
64675;BME280;51090;51.512;11.332;2023-04-22T02:38:37;99018.19;;;10.09;95.63
64675;BME280;51090;51.512;11.332;2023-04-22T02:41:03;99010.00;;;10.03;95.04
64675;BME280;51090;51.512;11.332;2023-04-22T02:43:29;99004.22;;;9.93;95.28
64675;BME280;51090;51.512;11.332;2023-04-22T02:45:54;99014.06;;;9.99;94.61
64675;BME280;51090;51.512;11.332;2023-04-22T02:48:20;99001.97;;;9.90;94.81
64675;BME280;51090;51.512;11.332;2023-04-22T02:50:46;99002.59;;;9.92;94.18
64675;BME280;51090;51.512;11.332;2023-04-22T02:53:11;99018.28;;;9.94;93.88
64675;BME280;51090;51.512;11.332;2023-04-22T02:55:41;99009.25;;;9.88;94.54
64675;BME280;51090;51.512;11.332;2023-04-22T02:58:07;99016.31;;;9.81;95.38
64675;BME280;51090;51.512;11.332;2023-04-22T03:00:34;99001.84;;;9.77;94.83
64675;BME280;51090;51.512;11.332;2023-04-22T03:03:00;98999.75;;;9.72;94.46
64675;BME280;51090;51.512;11.332;2023-04-22T03:05:26;98981.13;;;9.59;94.12
64675;BME280;51090;51.512;11.332;2023-04-22T03:07:52;99013.81;;;9.73;93.95
64675;BME280;51090;51.512;11.332;2023-04-22T03:10:18;99011.94;;;9.67;93.88
64675;BME280;51090;51.512;11.332;2023-04-22T03:12:44;99002.34;;;9.66;93.91
64675;BME280;51090;51.512;11.332;2023-04-22T03:15:10;99005.19;;;9.64;94.33
64675;BME280;51090;51.512;11.332;2023-04-22T03:17:36;99003.91;;;9.60;94.57
64675;BME280;51090;51.512;11.332;2023-04-22T03:20:03;99001.66;;;9.57;94.33
64675;BME280;51090;51.512;11.332;2023-04-22T03:22:29;99004.84;;;9.52;94.30
64675;BME280;51090;51.512;11.332;2023-04-22T03:24:55;98997.69;;;9.46;93.98
64675;BME280;51090;51.512;11.332;2023-04-22T03:27:21;98999.25;;;9.41;94.34
64675;BME280;51090;51.512;11.332;2023-04-22T03:29:47;98999.56;;;9.31;95.03
64675;BME280;51090;51.512;11.332;2023-04-22T03:32:13;98999.09;;;9.27;95.02
64675;BME280;51090;51.512;11.332;2023-04-22T03:34:39;98998.50;;;9.25;94.41
64675;BME280;51090;51.512;11.332;2023-04-22T03:37:05;99001.69;;;9.21;94.81
64675;BME280;51090;51.512;11.332;2023-04-22T03:39:31;98992.09;;;9.20;94.87
64675;BME280;51090;51.512;11.332;2023-04-22T03:41:57;98998.03;;;9.22;94.73
64675;BME280;51090;51.512;11.332;2023-04-22T03:44:23;99003.91;;;9.17;94.67
64675;BME280;51090;51.512;11.332;2023-04-22T03:46:49;98997.16;;;9.14;94.35
64675;BME280;51090;51.512;11.332;2023-04-22T03:49:15;98949.50;;;8.78;94.53
64675;BME280;51090;51.512;11.332;2023-04-22T03:51:41;98985.78;;;8.99;94.44
64675;BME280;51090;51.512;11.332;2023-04-22T03:54:06;98989.69;;;9.03;94.41
64675;BME280;51090;51.512;11.332;2023-04-22T03:56:32;98993.06;;;8.97;94.44
64675;BME280;51090;51.512;11.332;2023-04-22T03:58:58;98976.84;;;8.85;94.37
64675;BME280;51090;51.512;11.332;2023-04-22T04:01:23;98990.16;;;8.92;94.53
64675;BME280;51090;51.512;11.332;2023-04-22T04:03:49;98990.06;;;8.85;95.57
64675;BME280;51090;51.512;11.332;2023-04-22T04:06:15;98984.34;;;8.82;100.00
64675;BME280;51090;51.512;11.332;2023-04-22T04:08:41;98978.84;;;8.83;98.84
64675;BME280;51090;51.512;11.332;2023-04-22T04:11:08;98992.97;;;9.05;96.24
64675;BME280;51090;51.512;11.332;2023-04-22T04:13:34;98973.03;;;8.88;95.06
64675;BME280;51090;51.512;11.332;2023-04-22T04:15:59;98994.34;;;9.01;95.03
64675;BME280;51090;51.512;11.332;2023-04-22T04:18:26;98998.97;;;9.14;93.81
64675;BME280;51090;51.512;11.332;2023-04-22T04:20:51;98997.16;;;9.14;93.60
64675;BME280;51090;51.512;11.332;2023-04-22T04:23:17;99001.44;;;9.15;93.36
64675;BME280;51090;51.512;11.332;2023-04-22T04:25:43;98991.50;;;9.03;94.58
64675;BME280;51090;51.512;11.332;2023-04-22T04:28:09;98985.97;;;8.98;94.94
64675;BME280;51090;51.512;11.332;2023-04-22T04:30:36;98987.41;;;9.00;95.21
64675;BME280;51090;51.512;11.332;2023-04-22T04:33:03;99001.34;;;9.09;95.24
64675;BME280;51090;51.512;11.332;2023-04-22T04:35:34;98972.56;;;8.99;94.87
64675;BME280;51090;51.512;11.332;2023-04-22T04:38:00;98994.13;;;9.18;95.11
64675;BME280;51090;51.512;11.332;2023-04-22T04:40:26;98991.66;;;9.16;95.43
64675;BME280;51090;51.512;11.332;2023-04-22T04:42:56;98994.75;;;9.20;95.15
64675;BME280;51090;51.512;11.332;2023-04-22T04:45:27;98988.91;;;9.24;95.15
64675;BME280;51090;51.512;11.332;2023-04-22T04:47:53;98986.06;;;9.26;95.88
64675;BME280;51090;51.512;11.332;2023-04-22T04:50:19;98979.34;;;9.23;96.10
64675;BME280;51090;51.512;11.332;2023-04-22T04:52:46;98992.06;;;9.34;96.59
64675;BME280;51090;51.512;11.332;2023-04-22T04:55:14;98977.19;;;9.33;96.71
64675;BME280;51090;51.512;11.332;2023-04-22T04:57:40;98971.00;;;9.26;96.81
64675;BME280;51090;51.512;11.332;2023-04-22T05:00:06;98997.84;;;9.45;97.33
64675;BME280;51090;51.512;11.332;2023-04-22T05:02:32;98990.75;;;9.45;97.73
64675;BME280;51090;51.512;11.332;2023-04-22T05:04:58;98985.25;;;9.47;97.86
64675;BME280;51090;51.512;11.332;2023-04-22T05:07:24;98979.97;;;9.47;98.94
64675;BME280;51090;51.512;11.332;2023-04-22T05:09:49;98987.84;;;9.62;99.85
64675;BME280;51090;51.512;11.332;2023-04-22T05:12:15;98994.72;;;9.77;100.00
64675;BME280;51090;51.512;11.332;2023-04-22T05:14:41;98978.00;;;9.77;100.00
64675;BME280;51090;51.512;11.332;2023-04-22T05:17:06;98992.91;;;10.06;100.00
64675;BME280;51090;51.512;11.332;2023-04-22T05:19:32;98999.44;;;10.32;100.00
64675;BME280;51090;51.512;11.332;2023-04-22T05:21:58;99004.06;;;10.51;99.25
64675;BME280;51090;51.512;11.332;2023-04-22T05:24:24;98997.63;;;10.67;98.49
64675;BME280;51090;51.512;11.332;2023-04-22T05:26:50;99004.78;;;10.73;97.95
64675;BME280;51090;51.512;11.332;2023-04-22T05:29:16;99012.22;;;10.91;98.36
64675;BME280;51090;51.512;11.332;2023-04-22T05:31:42;99007.56;;;11.00;98.54
64675;BME280;51090;51.512;11.332;2023-04-22T05:34:08;99010.63;;;11.03;98.64
64675;BME280;51090;51.512;11.332;2023-04-22T05:36:34;99008.84;;;11.17;99.12
64675;BME280;51090;51.512;11.332;2023-04-22T05:39:00;98996.44;;;11.31;98.32
64675;BME280;51090;51.512;11.332;2023-04-22T05:41:26;98993.34;;;11.27;97.52
64675;BME280;51090;51.512;11.332;2023-04-22T05:43:52;99002.84;;;11.57;95.17
64675;BME280;51090;51.512;11.332;2023-04-22T05:46:18;99003.25;;;11.60;95.84
64675;BME280;51090;51.512;11.332;2023-04-22T05:48:44;98995.28;;;11.67;95.29
64675;BME280;51090;51.512;11.332;2023-04-22T05:51:09;98993.84;;;11.58;97.22
64675;BME280;51090;51.512;11.332;2023-04-22T05:53:35;98994.69;;;11.71;96.61
64675;BME280;51090;51.512;11.332;2023-04-22T05:56:01;98991.63;;;11.74;95.91
64675;BME280;51090;51.512;11.332;2023-04-22T05:58:26;98986.72;;;11.78;95.79
64675;BME280;51090;51.512;11.332;2023-04-22T06:00:52;99000.44;;;11.95;96.09
64675;BME280;51090;51.512;11.332;2023-04-22T06:03:18;98982.47;;;11.90;95.25
64675;BME280;51090;51.512;11.332;2023-04-22T06:05:43;98982.63;;;12.02;94.93
64675;BME280;51090;51.512;11.332;2023-04-22T06:08:10;98964.66;;;12.04;94.81
64675;BME280;51090;51.512;11.332;2023-04-22T06:10:37;98966.72;;;12.15;95.90
64675;BME280;51090;51.512;11.332;2023-04-22T06:13:05;98981.78;;;12.35;96.66
64675;BME280;51090;51.512;11.332;2023-04-22T06:15:34;98972.34;;;12.52;96.90
64675;BME280;51090;51.512;11.332;2023-04-22T06:18:00;98980.72;;;12.69;95.54
64675;BME280;51090;51.512;11.332;2023-04-22T06:20:27;98983.75;;;12.79;94.61
64675;BME280;51090;51.512;11.332;2023-04-22T06:22:53;98975.91;;;12.91;94.41
64675;BME280;51090;51.512;11.332;2023-04-22T06:25:19;98969.72;;;13.04;95.43
64675;BME280;51090;51.512;11.332;2023-04-22T06:27:45;98976.63;;;13.18;94.50
64675;BME280;51090;51.512;11.332;2023-04-22T06:30:11;98964.06;;;13.32;93.90
64675;BME280;51090;51.512;11.332;2023-04-22T06:32:37;98976.44;;;13.52;92.17
64675;BME280;51090;51.512;11.332;2023-04-22T06:35:03;98976.13;;;13.66;91.97
64675;BME280;51090;51.512;11.332;2023-04-22T06:37:28;98967.88;;;13.75;90.53
64675;BME280;51090;51.512;11.332;2023-04-22T06:39:54;98980.66;;;13.91;89.51
64675;BME280;51090;51.512;11.332;2023-04-22T06:42:20;98979.91;;;14.09;88.75
64675;BME280;51090;51.512;11.332;2023-04-22T06:44:46;98968.59;;;14.13;87.58
64675;BME280;51090;51.512;11.332;2023-04-22T06:47:11;98975.94;;;14.36;85.68
64675;BME280;51090;51.512;11.332;2023-04-22T06:49:37;98984.25;;;14.47;85.11
64675;BME280;51090;51.512;11.332;2023-04-22T06:52:04;98981.19;;;14.68;84.02
64675;BME280;51090;51.512;11.332;2023-04-22T06:54:30;98985.19;;;14.77;82.90
64675;BME280;51090;51.512;11.332;2023-04-22T06:56:56;98987.47;;;14.92;82.45
64675;BME280;51090;51.512;11.332;2023-04-22T06:59:22;98977.44;;;15.06;81.51
64675;BME280;51090;51.512;11.332;2023-04-22T07:01:48;98984.22;;;15.20;80.43
64675;BME280;51090;51.512;11.332;2023-04-22T07:04:13;98985.09;;;15.33;79.94
64675;BME280;51090;51.512;11.332;2023-04-22T07:06:39;98984.34;;;15.44;78.88
64675;BME280;51090;51.512;11.332;2023-04-22T07:09:05;98924.31;;;15.16;79.21
64675;BME280;51090;51.512;11.332;2023-04-22T07:11:31;98956.91;;;15.49;79.71
64675;BME280;51090;51.512;11.332;2023-04-22T07:13:57;98979.56;;;15.76;78.94
64675;BME280;51090;51.512;11.332;2023-04-22T07:16:23;98970.84;;;15.81;77.75
64675;BME280;51090;51.512;11.332;2023-04-22T07:18:49;98969.16;;;15.98;76.50
64675;BME280;51090;51.512;11.332;2023-04-22T07:21:15;98965.53;;;16.04;75.75
64675;BME280;51090;51.512;11.332;2023-04-22T07:23:40;98972.84;;;16.21;75.64
64675;BME280;51090;51.512;11.332;2023-04-22T07:26:06;98968.78;;;16.30;74.26
64675;BME280;51090;51.512;11.332;2023-04-22T07:28:32;98964.84;;;16.44;73.68
64675;BME280;51090;51.512;11.332;2023-04-22T07:30:57;98968.75;;;16.53;73.08
64675;BME280;51090;51.512;11.332;2023-04-22T07:33:23;98960.13;;;16.75;73.19
64675;BME280;51090;51.512;11.332;2023-04-22T07:35:49;98947.91;;;16.79;72.15
64675;BME280;51090;51.512;11.332;2023-04-22T07:38:15;98959.03;;;17.00;70.76
64675;BME280;51090;51.512;11.332;2023-04-22T07:40:40;98954.34;;;17.07;70.93
64675;BME280;51090;51.512;11.332;2023-04-22T07:43:06;98962.19;;;17.25;69.56
64675;BME280;51090;51.512;11.332;2023-04-22T07:45:32;98953.44;;;17.30;69.53
64675;BME280;51090;51.512;11.332;2023-04-22T07:47:58;98955.84;;;17.31;68.90
64675;BME280;51090;51.512;11.332;2023-04-22T07:50:24;98969.44;;;17.41;69.32
64675;BME280;51090;51.512;11.332;2023-04-22T07:52:50;98955.81;;;17.43;69.10
64675;BME280;51090;51.512;11.332;2023-04-22T07:55:15;98951.84;;;17.46;68.79
64675;BME280;51090;51.512;11.332;2023-04-22T07:57:41;98957.94;;;17.58;68.07
64675;BME280;51090;51.512;11.332;2023-04-22T08:00:08;98949.19;;;17.62;67.35
64675;BME280;51090;51.512;11.332;2023-04-22T08:02:34;98949.09;;;17.74;66.89
64675;BME280;51090;51.512;11.332;2023-04-22T08:05:00;98965.69;;;18.05;66.21
64675;BME280;51090;51.512;11.332;2023-04-22T08:07:26;98956.91;;;18.10;65.00
64675;BME280;51090;51.512;11.332;2023-04-22T08:09:52;98964.31;;;18.19;65.48
64675;BME280;51090;51.512;11.332;2023-04-22T08:12:18;98956.56;;;18.23;65.17
64675;BME280;51090;51.512;11.332;2023-04-22T08:14:44;98949.41;;;18.28;65.20
64675;BME280;51090;51.512;11.332;2023-04-22T08:17:09;98941.34;;;18.28;64.34
64675;BME280;51090;51.512;11.332;2023-04-22T08:19:35;98962.06;;;18.50;64.39
64675;BME280;51090;51.512;11.332;2023-04-22T08:22:01;98960.56;;;18.59;63.18
64675;BME280;51090;51.512;11.332;2023-04-22T08:24:27;98948.00;;;18.65;62.09
64675;BME280;51090;51.512;11.332;2023-04-22T08:26:52;98953.53;;;18.75;61.40
64675;BME280;51090;51.512;11.332;2023-04-22T08:29:18;98951.03;;;18.68;63.06
64675;BME280;51090;51.512;11.332;2023-04-22T08:31:44;98944.63;;;18.75;62.82
64675;BME280;51090;51.512;11.332;2023-04-22T08:34:09;98943.19;;;18.84;62.05
64675;BME280;51090;51.512;11.332;2023-04-22T08:36:35;98946.50;;;18.91;62.39
64675;BME280;51090;51.512;11.332;2023-04-22T08:39:01;98939.81;;;18.93;62.84
64675;BME280;51090;51.512;11.332;2023-04-22T08:41:27;98947.31;;;19.19;61.72
64675;BME280;51090;51.512;11.332;2023-04-22T08:43:53;98937.94;;;19.21;62.77
64675;BME280;51090;51.512;11.332;2023-04-22T08:46:20;98946.38;;;19.30;61.81
64675;BME280;51090;51.512;11.332;2023-04-22T08:48:49;98936.56;;;19.19;61.77
64675;BME280;51090;51.512;11.332;2023-04-22T08:51:16;98935.25;;;19.21;61.10
64675;BME280;51090;51.512;11.332;2023-04-22T08:53:45;98930.75;;;19.27;59.86
64675;BME280;51090;51.512;11.332;2023-04-22T08:56:14;98940.81;;;19.42;60.07
64675;BME280;51090;51.512;11.332;2023-04-22T08:58:41;98939.50;;;19.71;60.45
64675;BME280;51090;51.512;11.332;2023-04-22T09:01:08;98932.50;;;19.43;60.99
64675;BME280;51090;51.512;11.332;2023-04-22T09:03:35;98916.13;;;19.45;60.04
64675;BME280;51090;51.512;11.332;2023-04-22T09:06:03;98915.84;;;19.46;59.54
64675;BME280;51090;51.512;11.332;2023-04-22T09:08:30;98921.28;;;19.51;59.84
64675;BME280;51090;51.512;11.332;2023-04-22T09:10:58;98923.22;;;19.56;58.92
64675;BME280;51090;51.512;11.332;2023-04-22T09:13:25;98910.59;;;19.62;60.17
64675;BME280;51090;51.512;11.332;2023-04-22T09:15:51;98916.00;;;19.62;60.13
64675;BME280;51090;51.512;11.332;2023-04-22T09:18:18;98912.53;;;19.66;60.81
64675;BME280;51090;51.512;11.332;2023-04-22T09:20:46;98909.63;;;19.73;59.96
64675;BME280;51090;51.512;11.332;2023-04-22T09:23:13;98903.78;;;19.76;60.52
64675;BME280;51090;51.512;11.332;2023-04-22T09:25:40;98911.34;;;19.84;60.53
64675;BME280;51090;51.512;11.332;2023-04-22T09:28:11;98914.31;;;19.88;59.75
64675;BME280;51090;51.512;11.332;2023-04-22T09:30:37;98909.22;;;19.86;61.05
64675;BME280;51090;51.512;11.332;2023-04-22T09:33:05;98903.91;;;19.96;60.63
64675;BME280;51090;51.512;11.332;2023-04-22T09:35:37;98882.88;;;19.93;58.46
64675;BME280;51090;51.512;11.332;2023-04-22T09:38:07;98906.94;;;20.10;60.51
64675;BME280;51090;51.512;11.332;2023-04-22T09:40:33;98894.03;;;20.07;58.57
64675;BME280;51090;51.512;11.332;2023-04-22T09:43:03;98892.09;;;20.02;58.22
64675;BME280;51090;51.512;11.332;2023-04-22T09:45:34;98906.97;;;20.15;59.91
64675;BME280;51090;51.512;11.332;2023-04-22T09:48:16;98879.69;;;19.96;61.25
64675;BME280;51090;51.512;11.332;2023-04-22T09:50:48;98897.53;;;20.13;61.07
64675;BME280;51090;51.512;11.332;2023-04-22T09:53:17;98897.28;;;20.14;61.04
64675;BME280;51090;51.512;11.332;2023-04-22T09:55:46;98888.91;;;20.11;61.72
64675;BME280;51090;51.512;11.332;2023-04-22T09:58:15;98888.44;;;20.24;60.24
64675;BME280;51090;51.512;11.332;2023-04-22T10:00:56;98869.34;;;20.26;59.10
64675;BME280;51090;51.512;11.332;2023-04-22T10:03:22;98864.50;;;20.28;60.52
64675;BME280;51090;51.512;11.332;2023-04-22T10:05:47;98877.50;;;20.41;60.61
64675;BME280;51090;51.512;11.332;2023-04-22T10:08:15;98881.09;;;20.57;59.54
64675;BME280;51090;51.512;11.332;2023-04-22T10:10:41;98885.16;;;20.64;59.91
64675;BME280;51090;51.512;11.332;2023-04-22T10:13:07;98884.91;;;20.66;59.06
64675;BME280;51090;51.512;11.332;2023-04-22T10:15:46;98881.13;;;20.67;58.21
64675;BME280;51090;51.512;11.332;2023-04-22T10:18:17;98879.78;;;20.70;58.14
64675;BME280;51090;51.512;11.332;2023-04-22T10:20:46;98878.44;;;20.72;58.11
64675;BME280;51090;51.512;11.332;2023-04-22T10:23:22;98870.38;;;20.77;57.39
64675;BME280;51090;51.512;11.332;2023-04-22T10:25:52;98867.44;;;20.79;59.03
64675;BME280;51090;51.512;11.332;2023-04-22T10:28:20;98870.94;;;20.90;57.24
64675;BME280;51090;51.512;11.332;2023-04-22T10:30:47;98869.63;;;20.97;58.08
64675;BME280;51090;51.512;11.332;2023-04-22T10:41:29;98840.25;;;21.31;57.40
64675;BME280;51090;51.512;11.332;2023-04-22T10:43:57;98836.50;;;21.38;56.01
64675;BME280;51090;51.512;11.332;2023-04-22T10:48:56;98844.63;;;21.48;55.38
64675;BME280;51090;51.512;11.332;2023-04-22T10:52:01;98841.91;;;21.58;54.30
64675;BME280;51090;51.512;11.332;2023-04-22T10:57:07;98833.81;;;21.63;53.57
64675;BME280;51090;51.512;11.332;2023-04-22T10:59:41;98824.59;;;21.74;52.79
64675;BME280;51090;51.512;11.332;2023-04-22T11:02:12;98837.53;;;21.88;53.31
64675;BME280;51090;51.512;11.332;2023-04-22T11:04:37;98817.03;;;21.82;53.26
64675;BME280;51090;51.512;11.332;2023-04-22T11:15:15;98828.81;;;22.22;50.84
64675;BME280;51090;51.512;11.332;2023-04-22T11:17:44;98824.25;;;22.22;51.23
64675;BME280;51090;51.512;11.332;2023-04-22T11:20:12;98830.41;;;22.33;50.96
64675;BME280;51090;51.512;11.332;2023-04-22T11:22:41;98830.06;;;22.45;50.92
64675;BME280;51090;51.512;11.332;2023-04-22T11:25:07;98821.16;;;22.44;49.75
64675;BME280;51090;51.512;11.332;2023-04-22T11:27:35;98837.09;;;22.51;49.60
64675;BME280;51090;51.512;11.332;2023-04-22T11:30:20;98831.88;;;22.65;48.80
64675;BME280;51090;51.512;11.332;2023-04-22T11:32:52;98826.19;;;22.66;48.82
64675;BME280;51090;51.512;11.332;2023-04-22T11:35:31;98811.09;;;22.60;49.03
64675;BME280;51090;51.512;11.332;2023-04-22T11:38:05;98819.91;;;22.76;48.23
64675;BME280;51090;51.512;11.332;2023-04-22T11:40:36;98821.78;;;22.80;47.30
64675;BME280;51090;51.512;11.332;2023-04-22T11:43:06;98810.16;;;22.80;47.43
64675;BME280;51090;51.512;11.332;2023-04-22T11:45:34;98814.47;;;22.81;48.90
64675;BME280;51090;51.512;11.332;2023-04-22T11:48:02;98787.75;;;22.74;47.19
64675;BME280;51090;51.512;11.332;2023-04-22T11:50:32;98803.06;;;22.89;48.85
64675;BME280;51090;51.512;11.332;2023-04-22T11:53:01;98805.75;;;22.99;49.56
64675;BME280;51090;51.512;11.332;2023-04-22T11:55:30;98791.09;;;23.06;49.24
64675;BME280;51090;51.512;11.332;2023-04-22T11:58:04;98804.16;;;23.28;46.35
64675;BME280;51090;51.512;11.332;2023-04-22T12:00:35;98805.44;;;23.35;48.28
64675;BME280;51090;51.512;11.332;2023-04-22T12:03:05;98804.03;;;23.43;46.38
64675;BME280;51090;51.512;11.332;2023-04-22T12:05:54;98810.50;;;23.71;44.19
64675;BME280;51090;51.512;11.332;2023-04-22T12:08:29;98794.25;;;23.71;46.07
64675;BME280;51090;51.512;11.332;2023-04-22T12:11:01;98804.75;;;23.54;46.89
64675;BME280;51090;51.512;11.332;2023-04-22T12:13:32;98800.59;;;23.61;46.99
64675;BME280;51090;51.512;11.332;2023-04-22T12:16:16;98794.31;;;23.66;45.80
64675;BME280;51090;51.512;11.332;2023-04-22T12:18:53;98777.09;;;23.57;46.15
64675;BME280;51090;51.512;11.332;2023-04-22T12:21:21;98793.09;;;23.82;45.50
64675;BME280;51090;51.512;11.332;2023-04-22T12:23:58;98785.19;;;23.86;43.52
64675;BME280;51090;51.512;11.332;2023-04-22T12:26:24;98785.53;;;24.03;44.29
64675;BME280;51090;51.512;11.332;2023-04-22T12:28:52;98795.41;;;24.18;44.59
64675;BME280;51090;51.512;11.332;2023-04-22T12:31:18;98793.06;;;24.30;43.72
64675;BME280;51090;51.512;11.332;2023-04-22T12:33:45;98789.19;;;24.37;42.85
64675;BME280;51090;51.512;11.332;2023-04-22T12:36:12;98780.16;;;24.46;41.72
64675;BME280;51090;51.512;11.332;2023-04-22T12:38:38;98778.47;;;24.50;41.88
64675;BME280;51090;51.512;11.332;2023-04-22T12:41:05;98784.56;;;24.61;40.39
64675;BME280;51090;51.512;11.332;2023-04-22T12:43:31;98779.06;;;24.66;40.71
64675;BME280;51090;51.512;11.332;2023-04-22T12:46:01;98781.38;;;24.73;41.52
64675;BME280;51090;51.512;11.332;2023-04-22T12:48:27;98777.28;;;24.75;40.34
64675;BME280;51090;51.512;11.332;2023-04-22T12:50:52;98764.31;;;24.72;40.77
64675;BME280;51090;51.512;11.332;2023-04-22T12:53:20;98762.22;;;24.69;40.19
64675;BME280;51090;51.512;11.332;2023-04-22T12:55:46;98767.91;;;24.68;38.25
64675;BME280;51090;51.512;11.332;2023-04-22T12:58:12;98763.28;;;24.68;38.85
64675;BME280;51090;51.512;11.332;2023-04-22T13:00:39;98761.09;;;24.70;40.25
64675;BME280;51090;51.512;11.332;2023-04-22T13:03:05;98764.59;;;24.71;39.18
64675;BME280;51090;51.512;11.332;2023-04-22T13:05:31;98754.66;;;24.66;39.00
64675;BME280;51090;51.512;11.332;2023-04-22T13:07:56;98750.13;;;24.62;38.62
64675;BME280;51090;51.512;11.332;2023-04-22T13:10:22;98745.56;;;24.57;39.72
64675;BME280;51090;51.512;11.332;2023-04-22T13:12:48;98748.66;;;24.50;39.04
64675;BME280;51090;51.512;11.332;2023-04-22T13:15:14;98724.44;;;24.35;40.20